Terminal Aerodrome Forecast
Issued by NWS

Home | Current Version | Previous Version | Graphics & Text | Print | Product List | Glossary On
Versions: 1 2 3 4 5 6 7 8 9 10 11 12 13 14 15 16 17 18 19 20 21
000
FTUS43 KABR 312322
TAFATY
TAF
KATY 312322Z 0100/0124 17011KT P6SM VCSH FEW060 BKN090
     FM010600 13008KT P6SM OVC040
     FM011800 16015KT P6SM BKN040=

USA.gov is the U.S. government's official web portal to all federal, state and local government web resources and services.